Time;durP1;ratioP1;P1;durP2;ratioP2;P2;SDS_P1;SDS_P2;PMS_P1;PMS_P2;Temp;Humidity;BMP_temperature;BMP_pressure;BME280_temperature;BME280_humidity;BME280_pressure;Samples;Min_cycle;Max_cycle;Signal;HPM_P1;HPM_P2
2023/05/15 00:00:47;;;;;;;6.80;6.10;;;14.40;99.90;;;;;;6219489;23;20162;-74
2023/05/15 00:03:13;;;;;;;5.73;5.13;;;14.40;99.90;;;;;;6219726;23;20406;-74
2023/05/15 00:05:39;;;;;;;8.23;6.43;;;14.40;99.90;;;;;;6219202;23;20131;-74
2023/05/15 00:08:04;;;;;;;6.73;6.10;;;14.30;99.90;;;;;;6219417;23;20129;-74
2023/05/15 00:10:30;;;;;;;7.90;6.40;;;14.30;99.90;;;;;;6219613;23;20877;-74
2023/05/15 00:12:56;;;;;;;8.97;8.07;;;14.30;99.90;;;;;;6222838;23;20436;-73
2023/05/15 00:15:21;;;;;;;9.30;8.40;;;14.30;99.90;;;;;;6221054;23;20420;-74
2023/05/15 00:17:47;;;;;;;8.50;7.63;;;14.20;99.90;;;;;;6220733;23;20404;-74
2023/05/15 00:20:12;;;;;;;8.77;7.07;;;14.20;99.90;;;;;;6220763;23;20185;-74
2023/05/15 00:22:38;;;;;;;9.30;7.13;;;14.10;99.90;;;;;;6220304;23;20135;-73
2023/05/15 00:25:04;;;;;;;13.10;9.30;;;14.00;99.90;;;;;;6220433;23;20531;-73
2023/05/15 00:27:29;;;;;;;16.03;11.87;;;14.00;99.90;;;;;;6218856;23;20145;-74
2023/05/15 00:29:55;;;;;;;21.73;13.20;;;14.00;99.90;;;;;;6218591;23;20397;-74
2023/05/15 00:32:21;;;;;;;14.17;11.50;;;13.90;99.90;;;;;;6219572;23;20130;-74
2023/05/15 00:34:46;;;;;;;15.33;12.07;;;13.90;99.90;;;;;;6219291;23;20388;-73
2023/05/15 00:37:12;;;;;;;12.70;11.50;;;13.80;99.90;;;;;;6218792;23;20162;-73
2023/05/15 00:39:37;;;;;;;13.10;11.80;;;13.80;99.90;;;;;;6218867;23;20186;-73
2023/05/15 00:42:04;;;;;;;14.03;12.50;;;13.80;99.90;;;;;;6219078;23;20135;-74
2023/05/15 00:44:31;;;;;;;15.50;12.33;;;13.70;99.90;;;;;;6218880;23;20164;-74
2023/05/15 00:46:58;;;;;;;14.50;11.20;;;13.70;99.90;;;;;;6218935;23;20432;-74
2023/05/15 00:49:26;;;;;;;19.27;15.60;;;13.60;99.90;;;;;;6217817;23;20393;-73
2023/05/15 00:51:52;;;;;;;15.37;13.43;;;13.60;99.90;;;;;;6218882;23;20389;-74
2023/05/15 00:54:18;;;;;;;16.93;14.40;;;13.50;99.90;;;;;;6219072;23;20369;-74
2023/05/15 00:56:46;;;;;;;18.13;15.80;;;13.50;99.90;;;;;;6218674;23;20365;-74
2023/05/15 00:59:12;;;;;;;18.53;16.53;;;13.50;99.90;;;;;;6215823;23;20186;-73
2023/05/15 01:01:38;;;;;;;16.57;14.30;;;13.50;99.90;;;;;;6219246;23;20361;-74
2023/05/15 01:04:04;;;;;;;17.23;15.30;;;13.50;99.90;;;;;;6219162;23;20387;-74
2023/05/15 01:06:30;;;;;;;17.47;15.63;;;13.40;99.90;;;;;;6219360;23;20126;-74
2023/05/15 01:09:05;;;;;;;20.90;15.43;;;13.40;99.90;;;;;;6218514;23;20353;-73
2023/05/15 01:11:36;;;;;;;19.77;15.40;;;13.40;99.90;;;;;;6218005;23;20380;-73
2023/05/15 01:14:04;;;;;;;22.53;16.13;;;13.30;99.90;;;;;;6217818;23;20408;-73
2023/05/15 01:16:31;;;;;;;18.43;15.43;;;13.30;99.90;;;;;;6218936;23;20360;-74
2023/05/15 01:18:57;;;;;;;25.97;19.13;;;13.30;99.90;;;;;;6217850;23;20416;-73
2023/05/15 01:21:33;;;;;;;20.23;15.07;;;13.20;99.90;;;;;;6219710;23;20423;-74
2023/05/15 01:24:39;;;;;;;19.40;15.90;;;13.20;99.90;;;;;;6219151;23;20443;-74
2023/05/15 01:27:30;;;;;;;20.50;15.90;;;13.20;99.90;;;;;;6219363;23;20393;-73
2023/05/15 01:30:11;;;;;;;18.50;15.83;;;13.20;99.90;;;;;;6216113;23;20404;-74
2023/05/15 01:32:42;;;;;;;26.30;18.63;;;13.20;99.90;;;;;;6217761;23;20401;-73
2023/05/15 01:35:17;;;;;;;25.30;20.80;;;13.10;99.90;;;;;;6219248;23;20361;-74
2023/05/15 01:37:48;;;;;;;25.97;20.57;;;13.20;99.90;;;;;;6218166;23;20369;-74
2023/05/15 01:40:17;;;;;;;22.13;19.23;;;13.10;99.90;;;;;;6217654;23;20425;-74
2023/05/15 01:42:52;;;;;;;23.13;20.10;;;13.10;99.90;;;;;;6218433;23;20375;-74
2023/05/15 01:45:20;;;;;;;19.60;17.50;;;13.20;99.90;;;;;;6218650;23;20458;-75
2023/05/15 01:47:47;;;;;;;23.23;20.30;;;13.20;99.90;;;;;;6218272;23;20457;-73
2023/05/15 01:50:16;;;;;;;24.63;18.97;;;13.30;99.90;;;;;;6217029;23;20385;-73
2023/05/15 01:52:49;;;;;;;23.83;19.30;;;13.40;99.90;;;;;;6219787;23;20389;-73
2023/05/15 01:55:15;;;;;;;32.30;24.37;;;13.40;99.90;;;;;;6219829;23;20396;-73
2023/05/15 01:57:43;;;;;;;32.40;24.83;;;13.50;99.90;;;;;;6218267;23;20364;-73
2023/05/15 02:00:12;;;;;;;36.83;25.03;;;13.50;99.90;;;;;;6219589;23;20511;-73
2023/05/15 02:02:42;;;;;;;37.07;25.00;;;13.60;99.90;;;;;;6218777;23;20373;-74
2023/05/15 02:05:11;;;;;;;38.20;24.60;;;13.70;99.90;;;;;;6217219;23;20836;-74
2023/05/15 02:07:37;;;;;;;45.73;28.67;;;13.70;99.90;;;;;;6217378;23;20373;-73
2023/05/15 02:10:03;;;;;;;41.13;27.43;;;13.80;99.90;;;;;;6216151;23;20455;-74
2023/05/15 02:12:30;;;;;;;39.83;25.40;;;13.80;99.90;;;;;;6218247;23;20464;-73
2023/05/15 02:14:57;;;;;;;38.70;24.23;;;13.80;99.90;;;;;;6218149;23;20353;-73
2023/05/15 02:17:23;;;;;;;37.67;24.83;;;13.90;99.90;;;;;;6218390;23;20396;-73
2023/05/15 02:19:49;;;;;;;35.53;25.00;;;13.90;99.90;;;;;;6217372;23;20439;-74
2023/05/15 02:22:15;;;;;;;38.67;27.30;;;13.90;99.90;;;;;;6217011;23;20228;-74
2023/05/15 02:24:40;;;;;;;45.77;27.77;;;14.00;99.90;;;;;;6218157;23;20438;-75
2023/05/15 02:27:27;;;;;;;50.70;30.47;;;14.00;99.90;;;;;;6217789;23;20411;-74
2023/05/15 02:30:11;;;;;;;42.13;29.07;;;14.00;99.90;;;;;;6216940;23;20169;-74
2023/05/15 02:33:03;;;;;;;46.17;30.03;;;14.00;99.90;;;;;;6218059;23;20365;-74
2023/05/15 02:35:51;;;;;;;41.53;27.33;;;14.00;99.90;;;;;;6217422;23;20385;-73
2023/05/15 02:38:21;;;;;;;44.90;29.03;;;14.00;99.90;;;;;;6216799;23;20392;-72
2023/05/15 02:40:48;;;;;;;34.40;26.63;;;14.00;99.90;;;;;;6217991;23;20396;-73
2023/05/15 02:43:17;;;;;;;39.00;27.30;;;13.90;99.90;;;;;;6217469;23;20380;-74
2023/05/15 02:45:45;;;;;;;39.40;28.00;;;14.00;99.90;;;;;;6222294;23;20369;-74
2023/05/15 02:48:11;;;;;;;34.53;25.40;;;14.00;99.90;;;;;;6218865;23;20357;-73
2023/05/15 02:50:37;;;;;;;38.23;28.30;;;14.00;99.90;;;;;;6217342;23;20416;-74
2023/05/15 02:53:07;;;;;;;36.23;27.50;;;14.00;99.90;;;;;;6218350;23;20428;-74
2023/05/15 02:55:33;;;;;;;39.13;31.83;;;14.00;99.90;;;;;;6218336;23;20702;-73
2023/05/15 02:57:59;;;;;;;35.73;26.97;;;14.00;99.90;;;;;;6221627;23;20357;-74
2023/05/15 03:00:25;;;;;;;42.33;31.90;;;14.00;99.90;;;;;;6221123;23;20884;-74
2023/05/15 03:02:50;;;;;;;52.17;33.20;;;13.90;99.90;;;;;;6218794;23;20574;-74
2023/05/15 03:05:16;;;;;;;45.70;32.80;;;13.90;99.90;;;;;;6217712;23;20141;-74
2023/05/15 03:07:41;;;;;;;45.13;33.97;;;13.90;99.90;;;;;;6218111;23;20189;-74
2023/05/15 03:10:07;;;;;;;48.70;32.07;;;13.90;99.90;;;;;;6216728;23;20189;-74
2023/05/15 03:12:33;;;;;;;50.70;35.80;;;13.90;99.90;;;;;;6217572;23;20145;-74
2023/05/15 03:15:00;;;;;;;57.13;37.40;;;13.90;99.90;;;;;;6218336;23;20365;-74
2023/05/15 03:17:26;;;;;;;51.50;34.80;;;13.90;99.90;;;;;;6217119;23;20159;-74
2023/05/15 03:19:52;;;;;;;43.50;30.53;;;13.90;99.90;;;;;;6217157;23;20420;-75
2023/05/15 03:22:17;;;;;;;47.57;33.87;;;13.90;99.90;;;;;;6216813;23;20373;-74
2023/05/15 03:24:44;;;;;;;42.20;29.70;;;13.90;99.90;;;;;;6218296;23;20209;-74
2023/05/15 03:27:10;;;;;;;46.40;34.33;;;13.80;99.90;;;;;;6217583;23;20135;-74
2023/05/15 03:29:35;;;;;;;46.37;32.50;;;13.80;99.90;;;;;;6216925;23;20639;-74
2023/05/15 03:32:01;;;;;;;42.37;31.23;;;13.80;99.90;;;;;;6216434;23;20417;-75
2023/05/15 03:34:27;;;;;;;37.77;29.40;;;13.80;99.90;;;;;;6218689;23;20200;-74
2023/05/15 03:36:52;;;;;;;48.50;35.23;;;13.70;99.90;;;;;;6216972;23;20514;-74
2023/05/15 03:39:18;;;;;;;44.60;31.67;;;13.70;99.90;;;;;;6216754;23;20589;-75
2023/05/15 03:41:43;;;;;;;45.13;33.23;;;13.70;99.90;;;;;;6215971;23;20496;-73
2023/05/15 03:44:09;;;;;;;48.20;34.83;;;13.70;99.90;;;;;;6219224;23;20573;-73
2023/05/15 03:46:34;;;;;;;56.30;36.47;;;13.70;99.90;;;;;;6217834;23;20587;-74
2023/05/15 03:49:01;;;;;;;48.00;33.00;;;13.70;99.90;;;;;;6216332;23;20142;-74
2023/05/15 03:51:26;;;;;;;50.97;36.77;;;13.60;99.90;;;;;;6216698;23;20400;-74
2023/05/15 03:53:52;;;;;;;53.93;34.30;;;13.60;99.90;;;;;;6217911;23;20130;-74
2023/05/15 03:56:21;;;;;;;51.47;35.37;;;13.60;99.90;;;;;;6216637;23;20459;-74
2023/05/15 03:58:47;;;;;;;48.07;33.80;;;13.60;99.90;;;;;;6215412;23;20421;-74
2023/05/15 04:01:12;;;;;;;53.30;35.90;;;13.60;99.90;;;;;;6220564;23;20132;-74
2023/05/15 04:03:38;;;;;;;50.40;35.10;;;13.60;99.90;;;;;;6222610;23;20150;-72
2023/05/15 04:06:04;;;;;;;51.90;36.23;;;13.50;99.90;;;;;;6222835;23;20134;-73
2023/05/15 04:08:30;;;;;;;48.83;32.90;;;13.50;99.90;;;;;;6224603;23;20162;-74
2023/05/15 04:10:55;;;;;;;56.60;39.73;;;13.50;99.90;;;;;;6198261;23;20396;-74
2023/05/15 04:13:21;;;;;;;54.07;35.37;;;13.50;99.90;;;;;;6223612;23;20135;-73
2023/05/15 04:15:47;;;;;;;50.27;34.10;;;13.60;99.90;;;;;;6225966;23;20188;-74
2023/05/15 04:18:13;;;;;;;56.93;37.00;;;13.50;99.90;;;;;;6225362;23;20142;-74
2023/05/15 04:20:38;;;;;;;52.80;36.90;;;13.60;99.90;;;;;;6228999;23;20409;-75
2023/05/15 04:23:04;;;;;;;47.50;34.97;;;13.60;99.90;;;;;;6225961;23;20138;-74
2023/05/15 04:25:31;;;;;;;52.63;37.10;;;13.60;99.90;;;;;;6201394;23;20166;-74
2023/05/15 04:27:56;;;;;;;50.87;35.27;;;13.60;99.90;;;;;;6228637;23;20132;-73
2023/05/15 04:30:22;;;;;;;45.80;34.53;;;13.60;99.90;;;;;;6226334;23;20388;-73
2023/05/15 04:32:50;;;;;;;50.40;34.20;;;13.60;99.90;;;;;;6226100;23;20419;-74
2023/05/15 04:35:16;;;;;;;49.20;36.10;;;13.60;99.90;;;;;;6227157;23;20154;-74
2023/05/15 04:37:44;;;;;;;58.97;40.10;;;13.60;99.90;;;;;;6202122;23;20431;-74
2023/05/15 04:40:11;;;;;;;49.60;34.23;;;13.60;99.90;;;;;;6224647;23;20432;-74
2023/05/15 04:42:37;;;;;;;53.97;37.73;;;13.60;99.90;;;;;;6228970;23;20711;-77
2023/05/15 04:45:04;;;;;;;57.90;39.37;;;13.60;99.90;;;;;;6232030;23;20380;-75
2023/05/15 04:47:29;;;;;;;60.87;44.17;;;13.50;99.90;;;;;;6205329;23;20635;-76
2023/05/15 04:49:55;;;;;;;47.67;37.80;;;13.50;99.90;;;;;;6205035;23;20468;-75
2023/05/15 04:52:21;;;;;;;49.47;37.90;;;13.50;99.90;;;;;;6228575;23;20166;-75
2023/05/15 04:54:48;;;;;;;51.07;35.57;;;13.50;99.90;;;;;;6228879;23;20134;-75
2023/05/15 04:57:14;;;;;;;47.30;36.43;;;13.50;99.90;;;;;;6228736;23;20138;-75
2023/05/15 04:59:39;;;;;;;65.60;43.63;;;13.50;99.90;;;;;;6224831;23;20427;-74
2023/05/15 05:02:05;;;;;;;63.17;41.33;;;13.50;99.90;;;;;;6225526;23;20233;-74
2023/05/15 05:04:31;;;;;;;53.80;37.70;;;13.50;99.90;;;;;;6226507;23;20150;-75
2023/05/15 05:06:56;;;;;;;54.93;37.27;;;13.50;99.90;;;;;;6228691;23;20138;-76
2023/05/15 05:09:22;;;;;;;62.47;43.83;;;13.50;99.90;;;;;;6226097;23;20563;-72
2023/05/15 05:11:47;;;;;;;68.27;44.67;;;13.60;99.90;;;;;;6229235;23;20140;-78
2023/05/15 05:14:14;;;;;;;71.27;45.40;;;13.50;99.90;;;;;;6230714;23;20525;-75
2023/05/15 05:16:43;;;;;;;69.53;45.60;;;13.60;99.90;;;;;;6224965;23;20512;-73
2023/05/15 05:19:09;;;;;;;69.27;44.37;;;13.50;99.90;;;;;;6228163;23;20858;-76
2023/05/15 05:21:35;;;;;;;70.60;47.80;;;13.50;99.90;;;;;;6229286;23;20455;-74
2023/05/15 05:24:01;;;;;;;78.60;49.53;;;13.50;99.90;;;;;;6229750;23;20488;-76
2023/05/15 05:26:26;;;;;;;77.83;50.90;;;13.50;99.90;;;;;;6207678;23;20165;-78
2023/05/15 05:28:53;;;;;;;83.47;52.17;;;13.50;99.90;;;;;;6232388;23;20225;-77
2023/05/15 05:31:20;;;;;;;68.07;45.23;;;13.40;99.90;;;;;;6234434;23;20134;-77
2023/05/15 05:33:46;;;;;;;61.90;41.40;;;13.50;99.90;;;;;;6232922;23;20397;-79
2023/05/15 05:36:11;;;;;;;71.30;47.07;;;13.50;99.90;;;;;;6232899;23;20373;-77
2023/05/15 05:38:37;;;;;;;65.17;46.13;;;13.60;99.90;;;;;;6204562;23;20182;-74
2023/05/15 05:41:03;;;;;;;59.10;43.10;;;13.60;99.90;;;;;;6228794;23;20244;-78
2023/05/15 05:43:31;;;;;;;56.40;38.53;;;13.60;99.90;;;;;;6182159;23;20150;-77
2023/05/15 05:45:56;;;;;;;65.37;37.80;;;13.70;99.90;;;;;;6206255;23;20376;-76
2023/05/15 05:48:22;;;;;;;43.63;32.80;;;13.70;99.90;;;;;;6231214;23;20357;-76
2023/05/15 05:50:47;;;;;;;40.30;31.23;;;13.70;99.90;;;;;;6230611;23;20162;-77
2023/05/15 05:53:13;;;;;;;37.20;27.30;;;13.70;99.90;;;;;;6205285;23;20137;-75
2023/05/15 05:55:39;;;;;;;38.30;29.57;;;13.70;99.90;;;;;;6234995;23;20138;-79
2023/05/15 05:58:04;;;;;;;41.93;31.90;;;13.70;99.90;;;;;;6208465;23;20142;-78
2023/05/15 06:00:30;;;;;;;42.80;30.70;;;13.80;99.90;;;;;;6230313;23;20193;-76
2023/05/15 06:02:57;;;;;;;43.23;31.80;;;13.80;99.90;;;;;;6230464;23;20251;-75
2023/05/15 06:05:26;;;;;;;39.43;28.70;;;13.90;99.90;;;;;;6230939;23;20141;-75
2023/05/15 06:07:53;;;;;;;37.77;30.50;;;13.90;99.90;;;;;;6232967;23;20391;-75
2023/05/15 06:10:19;;;;;;;42.60;32.30;;;13.90;99.90;;;;;;6203682;23;20401;-76
2023/05/15 06:12:45;;;;;;;32.73;28.03;;;13.90;99.90;;;;;;6206164;23;20369;-77
2023/05/15 06:15:13;;;;;;;33.97;28.20;;;13.90;99.90;;;;;;6233505;23;20438;-75
2023/05/15 06:17:38;;;;;;;41.43;29.83;;;13.90;99.90;;;;;;6233230;23;20353;-76
2023/05/15 06:20:08;;;;;;;35.63;27.07;;;13.90;99.90;;;;;;6232994;23;20704;-77
2023/05/15 06:22:35;;;;;;;42.67;31.53;;;14.00;99.90;;;;;;6210774;23;20138;-77
2023/05/15 06:25:05;;;;;;;39.87;32.10;;;14.00;99.90;;;;;;6231616;23;20361;-75
2023/05/15 06:27:31;;;;;;;47.13;35.33;;;14.00;99.90;;;;;;6231950;23;20500;-77
2023/05/15 06:29:58;;;;;;;44.07;32.70;;;13.80;99.90;;;;;;6229893;23;20848;-78
2023/05/15 06:32:24;;;;;;;42.97;34.30;;;13.70;99.90;;;;;;6231208;23;20830;-77
2023/05/15 06:34:50;;;;;;;42.87;34.83;;;13.70;99.90;;;;;;6212247;23;20361;-76
2023/05/15 06:37:15;;;;;;;44.50;33.17;;;13.70;99.90;;;;;;6235039;23;20440;-77
2023/05/15 06:39:41;;;;;;;50.60;37.40;;;13.70;99.90;;;;;;6209346;23;20209;-78
2023/05/15 06:42:07;;;;;;;38.97;32.37;;;13.70;99.90;;;;;;6234706;23;20138;-78
2023/05/15 06:44:34;;;;;;;40.27;31.13;;;13.60;99.90;;;;;;6210427;23;20134;-78
2023/05/15 06:47:00;;;;;;;43.17;34.77;;;13.70;99.90;;;;;;6233704;23;20396;-79
2023/05/15 06:49:27;;;;;;;43.63;34.90;;;13.70;99.90;;;;;;6233418;23;20377;-79
2023/05/15 06:51:53;;;;;;;43.67;34.17;;;13.70;99.90;;;;;;6206944;23;20142;-77
2023/05/15 06:54:19;;;;;;;39.90;32.63;;;13.70;99.90;;;;;;6233738;23;20382;-76
2023/05/15 06:56:45;;;;;;;49.30;36.00;;;13.90;99.90;;;;;;6207695;23;20449;-78
2023/05/15 06:59:11;;;;;;;39.80;33.47;;;14.10;99.90;;;;;;6232326;23;20424;-75
2023/05/15 07:01:37;;;;;;;40.70;33.40;;;14.20;99.90;;;;;;6231020;23;20201;-78
2023/05/15 07:04:03;;;;;;;47.33;35.47;;;14.30;99.90;;;;;;6232992;23;20157;-77
2023/05/15 07:06:30;;;;;;;44.80;37.00;;;14.40;99.90;;;;;;6231282;23;20225;-79
2023/05/15 07:08:58;;;;;;;55.50;41.90;;;14.50;99.90;;;;;;6238931;23;20381;-78
2023/05/15 07:11:24;;;;;;;49.77;35.87;;;14.40;99.90;;;;;;6237220;23;20361;-79
2023/05/15 07:13:53;;;;;;;39.33;31.70;;;14.40;99.90;;;;;;6237260;23;20410;-79
2023/05/15 07:16:18;;;;;;;61.40;45.40;;;14.40;99.90;;;;;;6211374;23;20369;-76
2023/05/15 07:18:53;;;;;;;57.57;45.33;;;14.40;99.90;;;;;;6209095;23;20520;-76
2023/05/15 07:21:19;;;;;;;68.10;45.70;;;14.20;99.90;;;;;;6204235;23;20181;-77
2023/05/15 07:23:47;;;;;;;51.03;39.60;;;14.00;99.90;;;;;;6230834;23;20362;-75
2023/05/15 07:26:13;;;;;;;56.03;43.77;;;13.90;99.90;;;;;;6231904;23;20126;-77
2023/05/15 07:28:39;;;;;;;55.03;44.57;;;13.90;99.90;;;;;;6231686;23;20768;-78
2023/05/15 07:31:12;;;;;;;50.47;39.40;;;14.00;99.90;;;;;;6231633;23;20408;-77
2023/05/15 07:33:38;;;;;;;58.83;40.30;;;14.00;99.90;;;;;;6230376;23;20401;-77
2023/05/15 07:36:04;;;;;;;62.70;43.43;;;14.10;99.90;;;;;;6231828;23;20367;-76
2023/05/15 07:38:31;;;;;;;55.50;42.33;;;14.20;99.90;;;;;;6233972;23;20150;-77
2023/05/15 07:41:00;;;;;;;57.53;41.10;;;14.10;99.90;;;;;;6236441;23;20427;-77
2023/05/15 07:43:32;;;;;;;63.20;43.63;;;14.20;99.90;;;;;;6211918;23;20376;-77
2023/05/15 07:45:58;;;;;;;53.07;39.80;;;14.00;99.90;;;;;;6237984;23;20377;-78
2023/05/15 07:48:24;;;;;;;56.23;42.60;;;13.90;99.90;;;;;;6233617;23;20414;-79
2023/05/15 07:50:52;;;;;;;52.43;40.17;;;13.90;99.90;;;;;;6232762;23;20242;-79
2023/05/15 07:53:21;;;;;;;49.50;36.87;;;13.90;99.90;;;;;;6234768;22;20138;-79
2023/05/15 07:55:47;;;;;;;43.93;32.67;;;13.90;99.90;;;;;;6232074;23;20383;-75
2023/05/15 07:58:13;;;;;;;44.90;34.07;;;14.00;99.90;;;;;;6207144;23;20365;-77
2023/05/15 08:00:39;;;;;;;55.13;40.37;;;14.10;99.90;;;;;;6239635;23;20259;-78
2023/05/15 08:06:18;;;;;;;50.17;35.53;;;14.30;99.90;;;;;;6216880;22;20482;-77
2023/05/15 08:08:56;;;;;;;48.07;33.80;;;14.30;99.90;;;;;;6164959;23;20409;-77
2023/05/15 08:14:22;;;;;;;52.17;42.50;;;14.30;99.90;;;;;;6244531;22;20508;-80
2023/05/15 08:21:13;;;;;;;49.30;35.47;;;14.10;99.90;;;;;;6236744;22;20304;-80
2023/05/15 08:32:49;;;;;;;42.63;32.10;;;14.40;99.90;;;;;;6245642;22;20456;-79
2023/05/15 08:35:16;;;;;;;48.43;36.27;;;14.40;99.90;;;;;;6217766;23;20393;-79
2023/05/15 08:37:45;;;;;;;47.73;35.37;;;14.40;99.90;;;;;;6192540;23;20412;-77
2023/05/15 08:40:14;;;;;;;47.47;36.07;;;14.40;99.90;;;;;;6241656;23;20417;-79
2023/05/15 08:42:52;;;;;;;45.87;36.90;;;14.40;99.90;;;;;;6166974;22;20373;-78
2023/05/15 08:45:19;;;;;;;47.37;33.73;;;14.50;99.90;;;;;;6193786;22;20368;-78
2023/05/15 08:50:37;;;;;;;42.90;35.57;;;14.70;99.90;;;;;;6242341;22;20591;-78
2023/05/15 08:53:04;;;;;;;41.23;32.70;;;14.90;99.90;;;;;;6190156;23;20408;-79
2023/05/15 08:55:31;;;;;;;37.77;30.47;;;15.00;99.90;;;;;;6166174;23;20378;-78
2023/05/15 08:58:20;;;;;;;33.97;30.23;;;15.20;99.90;;;;;;6167658;23;20498;-78
2023/05/15 09:08:04;;;;;;;29.17;26.10;;;16.00;99.20;;;;;;6243870;22;20491;-79
2023/05/15 09:20:00;;;;;;;30.30;27.20;;;16.70;90.60;;;;;;6239239;22;20463;-77
2023/05/15 09:22:32;;;;;;;28.30;25.27;;;16.70;90.10;;;;;;6189536;23;20385;-77
2023/05/15 09:28:24;;;;;;;30.70;25.50;;;16.70;89.90;;;;;;6181213;22;20401;-81
2023/05/15 09:31:02;;;;;;;30.57;26.77;;;16.90;89.60;;;;;;6243822;22;20420;-80
2023/05/15 09:34:05;;;;;;;30.33;26.40;;;17.00;81.90;;;;;;6193811;22;20372;-81
2023/05/15 10:04:59;;;;;;;27.50;21.97;;;17.50;71.00;;;;;;6241780;22;20524;-81
2023/05/15 10:10:47;;;;;;;25.40;21.20;;;17.60;70.40;;;;;;6243086;22;20526;-79
2023/05/15 10:13:28;;;;;;;28.80;21.03;;;17.70;67.90;;;;;;6187005;23;20385;-81
2023/05/15 10:20:06;;;;;;;30.90;24.20;;;17.80;68.80;;;;;;6236167;23;20463;-80
2023/05/15 10:22:49;;;;;;;23.13;20.33;;;17.80;70.60;;;;;;6109351;23;20357;-80
2023/05/15 10:25:22;;;;;;;27.83;22.53;;;17.80;67.20;;;;;;6188635;23;20400;-77
2023/05/15 10:31:00;;;;;;;26.07;22.90;;;18.00;66.70;;;;;;6242497;22;20503;-79
2023/05/15 10:33:47;;;;;;;21.83;19.47;;;18.00;67.00;;;;;;6216867;23;20404;-80
2023/05/15 10:36:15;;;;;;;24.43;21.83;;;17.90;67.10;;;;;;6216504;22;20402;-82
2023/05/15 10:38:43;;;;;;;23.43;19.30;;;17.90;65.80;;;;;;6216256;23;20436;-79
2023/05/15 10:41:11;;;;;;;22.67;20.30;;;18.00;65.60;;;;;;6138095;23;20386;-80
2023/05/15 10:43:38;;;;;;;24.90;19.00;;;18.20;63.20;;;;;;6187631;23;20393;-80
2023/05/15 10:46:04;;;;;;;28.60;23.27;;;18.20;62.40;;;;;;6161818;23;20391;-79
2023/05/15 10:48:35;;;;;;;22.50;19.90;;;18.20;63.00;;;;;;6211997;23;20370;-79
2023/05/15 10:51:03;;;;;;;26.17;22.80;;;18.10;65.20;;;;;;6186863;23;20382;-79
2023/05/15 10:53:32;;;;;;;27.13;21.27;;;18.20;63.70;;;;;;6150843;23;20408;-78
2023/05/15 10:55:59;;;;;;;22.90;18.00;;;18.20;63.50;;;;;;6126959;23;20408;-79
2023/05/15 11:18:09;;;;;;;20.03;15.60;;;18.60;53.70;;;;;;6226267;22;20501;-81
2023/05/15 13:07:16;;;;;;;;;;;;;;;;;;;;;
2023/05/15 13:43:33;;;;;;;17.37;13.10;;;20.20;44.10;;;;;;6243813;22;20471;-82
2023/05/15 13:46:38;;;;;;;14.13;12.63;;;20.20;44.30;;;;;;6186846;23;20492;-82
2023/05/15 13:49:11;;;;;;;15.90;14.00;;;20.30;44.50;;;;;;6165346;23;20496;-82
2023/05/15 14:36:26;;;;;;;25.27;21.30;;;20.30;50.40;;;;;;6211288;22;20463;-81
2023/05/15 14:42:31;;;;;;;29.00;23.50;;;20.30;50.30;;;;;;6244532;22;20438;-81
2023/05/15 14:49:39;;;;;;;25.53;22.87;;;20.10;51.20;;;;;;6222645;22;20450;-83
2023/05/15 14:52:10;;;;;;;23.23;20.83;;;20.00;51.30;;;;;;6152938;23;20398;-78
2023/05/15 14:54:41;;;;;;;25.23;20.97;;;20.10;51.90;;;;;;6156163;23;20378;-80
2023/05/15 15:18:01;;;;;;;17.77;15.87;;;21.20;46.60;;;;;;6231518;22;20445;-81
2023/05/15 15:20:27;;;;;;;13.87;12.53;;;21.00;47.80;;;;;;6119059;23;20475;-80
2023/05/15 15:34:24;;;;;;;12.67;11.20;;;20.60;48.80;;;;;;6233469;22;20443;-81
2023/05/15 15:36:50;;;;;;;14.33;12.80;;;20.60;48.70;;;;;;6191980;23;20384;-79
2023/05/15 15:39:18;;;;;;;15.07;12.00;;;20.50;48.40;;;;;;6217341;22;20424;-79
2023/05/15 15:41:44;;;;;;;13.97;12.50;;;20.50;48.20;;;;;;6169078;23;20419;-79
2023/05/15 15:44:11;;;;;;;16.37;13.27;;;20.50;48.30;;;;;;6217413;23;20459;-79
2023/05/15 15:46:39;;;;;;;14.43;12.00;;;20.40;49.00;;;;;;6161224;23;20452;-80
2023/05/15 15:51:56;;;;;;;14.47;12.90;;;20.20;49.80;;;;;;6212276;23;20511;-80
2023/05/15 15:54:24;;;;;;;15.80;14.20;;;20.10;50.10;;;;;;6160050;23;20370;-80
2023/05/15 15:56:51;;;;;;;17.90;16.03;;;20.00;50.10;;;;;;6138037;23;20444;-81
2023/05/15 15:59:20;;;;;;;18.50;15.37;;;20.00;50.60;;;;;;6187410;23;20446;-81
2023/05/15 16:01:47;;;;;;;18.40;13.50;;;20.00;50.80;;;;;;6161925;23;20389;-80
2023/05/15 16:04:17;;;;;;;14.77;12.37;;;20.10;50.60;;;;;;6187724;23;20415;-80
2023/05/15 16:06:43;;;;;;;19.30;15.33;;;20.20;50.50;;;;;;6162309;23;20381;-79
2023/05/15 16:09:10;;;;;;;14.07;12.37;;;20.20;50.20;;;;;;6161879;23;20416;-79
2023/05/15 16:11:37;;;;;;;15.80;13.87;;;20.10;50.30;;;;;;6186911;23;20369;-80
2023/05/15 16:14:03;;;;;;;17.83;15.00;;;20.00;50.80;;;;;;6187693;23;20357;-80
2023/05/15 16:16:37;;;;;;;18.60;15.67;;;19.90;51.70;;;;;;6161677;23;20384;-80
2023/05/15 16:22:20;;;;;;;17.83;15.50;;;19.80;52.30;;;;;;6244113;22;20512;-79
2023/05/15 16:25:12;;;;;;;17.70;15.23;;;19.70;53.40;;;;;;6193210;22;20383;-80
2023/05/15 16:27:43;;;;;;;16.43;12.83;;;19.50;54.10;;;;;;6146811;23;20403;-82
2023/05/15 16:30:33;;;;;;;19.80;17.60;;;19.50;54.80;;;;;;6086188;23;20473;-81
2023/05/15 16:32:59;;;;;;;20.83;18.63;;;19.50;55.60;;;;;;6182437;23;20400;-80
2023/05/15 16:35:28;;;;;;;19.40;16.87;;;19.50;55.80;;;;;;6182909;23;20385;-80
2023/05/15 16:37:55;;;;;;;17.90;16.10;;;19.60;54.90;;;;;;6131973;23;20395;-79
2023/05/15 16:40:24;;;;;;;20.97;17.63;;;19.40;55.00;;;;;;6157815;23;20470;-80
2023/05/15 16:43:10;;;;;;;20.00;17.17;;;19.30;55.50;;;;;;6157497;23;20456;-80
2023/05/15 16:45:36;;;;;;;22.43;20.03;;;19.00;56.00;;;;;;6181790;23;20410;-80
2023/05/15 16:48:03;;;;;;;23.40;18.77;;;18.80;56.80;;;;;;6157255;23;20451;-78
2023/05/15 16:50:33;;;;;;;20.67;17.93;;;18.50;58.00;;;;;;6132779;23;20416;-80
2023/05/15 16:53:03;;;;;;;21.60;19.30;;;18.50;59.10;;;;;;6111560;23;20414;-80
2023/05/15 16:55:29;;;;;;;21.30;17.77;;;18.40;59.40;;;;;;6157731;23;20391;-81
2023/05/15 16:57:56;;;;;;;19.40;16.90;;;18.40;59.30;;;;;;6147051;23;20392;-80
2023/05/15 17:00:24;;;;;;;21.27;18.93;;;18.20;59.40;;;;;;6143543;23;20460;-80
2023/05/15 17:02:53;;;;;;;22.30;18.53;;;18.20;59.10;;;;;;6181092;23;20405;-81
2023/05/15 17:05:19;;;;;;;25.43;20.10;;;18.10;59.40;;;;;;6109233;23;20482;-81
2023/05/15 17:07:46;;;;;;;22.00;17.63;;;18.00;59.90;;;;;;6108580;23;20358;-79
2023/05/15 17:10:13;;;;;;;22.17;19.40;;;17.90;61.30;;;;;;6157692;23;20446;-80
2023/05/15 17:12:42;;;;;;;22.97;20.50;;;17.80;62.80;;;;;;6109992;23;20151;-80
2023/05/15 17:15:12;;;;;;;25.17;19.87;;;17.90;63.80;;;;;;6156459;23;20455;-79
2023/05/15 17:17:38;;;;;;;22.53;20.10;;;17.80;64.90;;;;;;6155701;23;20351;-79
2023/05/15 17:20:07;;;;;;;26.17;22.27;;;17.80;66.10;;;;;;6069241;23;20437;-80
2023/05/15 17:22:35;;;;;;;27.87;24.63;;;17.90;67.00;;;;;;6070229;23;20485;-79
2023/05/15 17:25:05;;;;;;;30.17;22.30;;;17.90;67.50;;;;;;6044403;23;20396;-81
2023/05/15 17:27:40;;;;;;;28.97;23.50;;;17.80;69.00;;;;;;6023086;23;20390;-79
2023/05/15 17:30:10;;;;;;;27.17;21.93;;;17.80;70.00;;;;;;6045830;23;20437;-80
2023/05/15 17:32:38;;;;;;;24.77;21.07;;;17.80;71.50;;;;;;6069100;23;20398;-81
2023/05/15 17:35:14;;;;;;;26.23;22.90;;;17.90;71.00;;;;;;6022181;23;20373;-81
2023/05/15 17:37:41;;;;;;;29.70;23.67;;;17.80;71.00;;;;;;6034382;23;20424;-79
2023/05/15 17:40:09;;;;;;;27.13;21.53;;;17.80;69.70;;;;;;6035362;23;20482;-80
2023/05/15 17:42:36;;;;;;;24.77;19.90;;;17.80;70.10;;;;;;5964370;23;20483;-80
2023/05/15 17:45:07;;;;;;;22.10;18.67;;;17.70;68.80;;;;;;5986188;23;20473;-80
2023/05/15 17:47:36;;;;;;;24.70;17.30;;;17.60;69.70;;;;;;5964981;23;20428;-79
2023/05/15 17:50:02;;;;;;;27.07;19.30;;;17.60;70.10;;;;;;6020828;23;20467;-78
2023/05/15 17:52:28;;;;;;;22.20;18.30;;;17.50;69.80;;;;;;6110799;23;20840;-79
2023/05/15 17:54:56;;;;;;;25.90;19.73;;;17.40;70.20;;;;;;6131040;23;20383;-79
2023/05/15 17:57:24;;;;;;;29.37;22.27;;;17.40;70.10;;;;;;6130866;23;20151;-80
2023/05/15 17:59:50;;;;;;;27.53;21.43;;;17.40;71.00;;;;;;6131203;23;20442;-79
2023/05/15 18:02:16;;;;;;;27.83;21.33;;;17.30;72.60;;;;;;6129969;23;20387;-78
2023/05/15 18:04:43;;;;;;;31.57;24.33;;;17.10;74.40;;;;;;6155292;23;20155;-79
2023/05/15 18:07:09;;;;;;;26.03;21.70;;;17.10;76.80;;;;;;6130893;23;20387;-78